Overton RPC :: 150A Sugar Tree

liberation: 2020-09-12  07:00     latitude: 35.832927     longitude: -88.035592 39 birds
# LOFT PRING MILES ARRIVAL SPEED ToWin
1 VALHALLA LOFTS IF20-ORP-0020 158.271 2020-09-12 11:10:38.921 1111.345 00:00:00
2 VALHALLA LOFTS IF20-VALH-0030 158.271 2020-09-12 11:10:43.381 1111.016 00:00:04
3 VALHALLA LOFTS IF20-VALH-0042 158.271 2020-09-12 11:10:44.358 1110.943 00:00:05
4 VALHALLA LOFTS IF20-VALH-0085 158.271 2020-09-12 11:10:45.011 1110.895 00:00:06
5 VALHALLA LOFTS IF20-VALH-0005 158.271 2020-09-12 11:10:52.105 1110.372 00:00:13
6 VALHALLA LOFTS IF20-VALH-0094 158.271 2020-09-12 11:10:56.487 1110.048 00:00:18
7 VALHALLA LOFTS IF20-VALH-0093 158.271 2020-09-12 11:10:57.003 1110.010 00:00:18
8 VALHALLA LOFTS IF20-VALH-0025 158.271 2020-09-12 11:11:30.290 1107.562 00:00:51
9 VALHALLA LOFTS IF20-ORP-0021 158.271 2020-09-12 11:11:33.336 1107.338 00:00:54
10 VALHALLA LOFTS IF20-VALH-0009 158.271 2020-09-12 11:11:35.684 1107.166 00:00:57
11 VALHALLA LOFTS IF20-VALH-0003 158.271 2020-09-12 11:14:13.662 1095.699 00:03:35
12 VALHALLA LOFTS IF20-VALH-0097 158.271 2020-09-12 11:14:37.648 1093.979 00:03:59
13 VALHALLA LOFTS IF20-VALH-0018 158.271 2020-09-12 11:44:58.049 977.505 00:34:19
14 VALHALLA LOFTS IF20-VALH-0024 158.271 2020-09-12 12:05:11.713 912.718 00:54:33
15 VALHALLA LOFTS IF20-VALH-0039 158.271 2020-09-12 12:06:44.816 908.101 00:56:06
16 VALHALLA LOFTS IF20-VALH-0012 158.271 2020-09-12 13:22:33.082 728.156 02:11:54
17 VALHALLA LOFTS IF20-VALH-0087 158.271 2020-09-12 13:22:34.168 728.122 02:11:55
18 VALHALLA LOFTS IF20-VALH-0021 158.271 2020-09-12 13:22:36.486 728.048 02:11:58
19 VALHALLA LOFTS IF20-VALH-0100 158.271 2020-09-12 14:29:27.301 619.766 03:18:48
20 LET IT GO LOFT IF20-ORP-0102 181.373 2020-09-12 16:15:24.788 574.737 04:28:11
21 LET IT GO LOFT IF20-ORP-0119 181.373 2020-09-12 17:07:24.682 525.536 05:20:11
22 LET IT GO LOFT IF20-ORP-0106 181.373 2020-09-12 18:18:11.852 470.683 06:30:58
LET IT GO LOFT IF20-ORP-0105 0 0000-00-00 00:00:00.000 0.000 00:00:00
LET IT GO LOFT IF20-ORP-0112 0 0000-00-00 00:00:00.000 0.000 00:00:00
LET IT GO LOFT IF20-ORP-0115 0 0000-00-00 00:00:00.000 0.000 00:00:00
LET IT GO LOFT IF20-ORP-0122 0 0000-00-00 00:00:00.000 0.000 00:00:00
LET IT GO LOFT IF20-VALH-0092 0 0000-00-00 00:00:00.000 0.000 00:00:00
VALHALLA LOFTS IF20-ORP-0022 0 0000-00-00 00:00:00.000 0.000 00:00:00
VALHALLA LOFTS IF20-ORP-0137 0 0000-00-00 00:00:00.000 0.000 00:00:00
VALHALLA LOFTS IF20-VALH-0007 0 0000-00-00 00:00:00.000 0.000 00:00:00
VALHALLA LOFTS IF20-VALH-0019 0 0000-00-00 00:00:00.000 0.000 00:00:00
VALHALLA LOFTS IF20-VALH-0022 0 0000-00-00 00:00:00.000 0.000 00:00:00
VALHALLA LOFTS IF20-VALH-0023 0 0000-00-00 00:00:00.000 0.000 00:00:00
VALHALLA LOFTS IF20-VALH-0028 0 0000-00-00 00:00:00.000 0.000 00:00:00
VALHALLA LOFTS IF20-VALH-0086 0 0000-00-00 00:00:00.000 0.000 00:00:00
VALHALLA LOFTS IF20-VALH-0090 0 0000-00-00 00:00:00.000 0.000 00:00:00
VALHALLA LOFTS IF20-VALH-0091 0 0000-00-00 00:00:00.000 0.000 00:00:00
VALHALLA LOFTS IF20-VALH-0096 0 0000-00-00 00:00:00.000 0.000 00:00:00
VALHALLA LOFTS IF20-VALH-0099 0 0000-00-00 00:00:00.000 0.000 00:00:00